createdAt,value
2023-02-14T00:01:10.482Z,4.06
2023-02-14T00:05:13.580Z,4.06
2023-02-14T00:07:14.833Z,4.06
2023-02-14T00:09:16.706Z,4.06
2023-02-14T00:11:18.275Z,4.06
2023-02-14T00:13:19.424Z,4.06
2023-02-14T00:15:21.447Z,4.06
2023-02-14T00:17:23.372Z,4.06
2023-02-14T00:21:25.959Z,4.06
2023-02-14T00:23:27.297Z,4.06
2023-02-14T00:25:29.220Z,4.06
2023-02-14T00:27:31.030Z,4.06
2023-02-14T00:31:33.462Z,4.06
2023-02-14T00:33:35.053Z,4.06
2023-02-14T00:37:38.921Z,4.06
2023-02-14T00:39:40.058Z,4.06
2023-02-14T00:41:41.803Z,4.06
2023-02-14T00:43:43.344Z,4.06
2023-02-14T00:47:46.301Z,4.06
2023-02-14T00:49:48.009Z,4.05
2023-02-14T00:51:49.715Z,4.05
2023-02-14T00:53:50.946Z,4.05
2023-02-14T00:55:52.547Z,4.05
2023-02-14T00:57:54.397Z,4.05
2023-02-14T00:59:55.935Z,4.06
2023-02-14T01:03:58.356Z,4.05
2023-02-14T01:05:59.869Z,4.05
2023-02-14T01:08:01.518Z,4.05
2023-02-14T01:10:02.630Z,4.05
2023-02-14T01:14:05.785Z,4.05
2023-02-14T01:16:07.365Z,4.05
2023-02-14T01:18:08.465Z,4.05
2023-02-14T01:20:09.762Z,4.05
2023-02-14T01:22:11.609Z,4.05
2023-02-14T01:24:13.210Z,4.05
2023-02-14T01:26:14.558Z,4.05
2023-02-14T01:30:17.711Z,4.05
2023-02-14T01:32:19.651Z,4.05
2023-02-14T01:34:21.332Z,4.05
2023-02-14T01:36:22.503Z,4.04
2023-02-14T01:38:23.789Z,4.04
2023-02-14T01:40:25.122Z,4.04
2023-02-14T01:42:26.380Z,4.05
2023-02-14T01:43:10.287Z,4.04
2023-02-14T01:45:12.164Z,4.04
2023-02-14T01:47:13.479Z,4.04
2023-02-14T01:51:17.126Z,4.04
2023-02-14T01:53:19.064Z,4.04
2023-02-14T01:55:20.420Z,4.04
2023-02-14T01:57:22.341Z,4.04
2023-02-14T01:59:24.166Z,4.04
2023-02-14T02:01:25.680Z,4.04
2023-02-14T02:03:26.788Z,4.04
2023-02-14T02:07:29.822Z,4.04
2023-02-14T02:09:30.858Z,4.04
2023-02-14T02:13:33.710Z,4.04
2023-02-14T02:15:34.971Z,4.04
2023-02-14T02:17:36.393Z,4.04
2023-02-14T02:19:38.200Z,4.04
2023-02-14T02:23:40.728Z,4.04
2023-02-14T02:25:42.283Z,4.04
2023-02-14T02:27:44.273Z,4.04
2023-02-14T02:29:46.161Z,4.04
2023-02-14T02:33:49.234Z,4.04
2023-02-14T02:35:51.164Z,4.04
2023-02-14T02:37:53.090Z,4.04
2023-02-14T02:39:54.467Z,4.04
2023-02-14T02:41:56.116Z,4.04
2023-02-14T02:43:58.061Z,4.04
2023-02-14T02:45:59.266Z,4.04
2023-02-14T02:50:02.748Z,4.03
2023-02-14T02:52:04.091Z,4.03
2023-02-14T02:56:07.088Z,4.03
2023-02-14T02:58:08.607Z,4.04
2023-02-14T03:00:10.376Z,4.04
2023-02-14T03:02:11.660Z,4.03
2023-02-14T03:06:14.782Z,4.03
2023-02-14T03:08:16.677Z,4.03
2023-02-14T03:10:18.432Z,4.03
2023-02-14T03:12:20.417Z,4.03
2023-02-14T03:16:23.070Z,4.03
2023-02-14T03:18:24.307Z,4.03
2023-02-14T03:20:25.505Z,4.03
2023-02-14T03:22:27.211Z,4.03
2023-02-14T03:24:28.785Z,4.03
2023-02-14T03:26:30.689Z,4.03
2023-02-14T03:28:32.072Z,4.03
2023-02-14T03:32:34.868Z,4.03
2023-02-14T03:34:36.458Z,4.03
2023-02-14T03:36:38.327Z,4.03
2023-02-14T03:38:39.979Z,4.03
2023-02-14T03:40:41.123Z,4.03
2023-02-14T03:42:42.706Z,4.03
2023-02-14T03:44:44.363Z,4.03
2023-02-14T03:48:47.708Z,4.03
2023-02-14T03:50:49.681Z,4.02
2023-02-14T03:52:50.750Z,4.03
2023-02-14T03:54:52.479Z,4.03
2023-02-14T03:58:55.186Z,4.03
2023-02-14T04:00:57.045Z,4.02
2023-02-14T04:04:59.648Z,4.02
2023-02-14T04:07:01.069Z,4.02
2023-02-14T04:09:02.833Z,4.03
2023-02-14T04:11:04.662Z,4.02
2023-02-14T04:15:07.193Z,4.02
2023-02-14T04:17:08.577Z,4.02
2023-02-14T04:19:10.266Z,4.02
2023-02-14T04:21:11.542Z,4.02
2023-02-14T04:23:12.961Z,4.02
2023-02-14T04:25:14.835Z,4.02
2023-02-14T04:27:15.876Z,4.02
2023-02-14T04:31:19.398Z,4.02
2023-02-14T04:33:20.871Z,4.02
2023-02-14T04:35:22.161Z,4.02
2023-02-14T04:37:23.465Z,4.02
2023-02-14T04:39:25.387Z,4.02
2023-02-14T04:41:27.410Z,4.02
2023-02-14T04:43:37.083Z,4.02
2023-02-14T04:47:32.285Z,4.02
2023-02-14T04:49:33.540Z,4.02
2023-02-14T04:51:34.840Z,4.02
2023-02-14T04:53:36.419Z,4.02
2023-02-14T04:57:40.142Z,4.02
2023-02-14T04:59:41.693Z,4.02
2023-02-14T05:01:43.290Z,4.02
2023-02-14T05:03:45.125Z,4.02
2023-02-14T05:05:46.451Z,4.02
2023-02-14T05:07:48.079Z,4.02
2023-02-14T05:09:49.106Z,4.02
2023-02-14T05:13:51.792Z,4.01
2023-02-14T05:15:53.439Z,4.02
2023-02-14T05:17:54.855Z,4.01
2023-02-14T05:19:56.233Z,4.02
2023-02-14T05:21:57.542Z,4.02
2023-02-14T05:23:58.846Z,4.01
2023-02-14T05:26:00.748Z,4.01
2023-02-14T05:30:03.562Z,4.01
2023-02-14T05:32:04.625Z,4.01
2023-02-14T05:34:06.144Z,4.01
2023-02-14T05:36:07.334Z,4.01
2023-02-14T05:40:10.186Z,4.01
2023-02-14T05:42:12.004Z,4.01
2023-02-14T05:44:13.636Z,4.01
2023-02-14T05:46:15.031Z,4.01
2023-02-14T05:48:16.241Z,4.01
2023-02-14T05:50:17.843Z,4.01
2023-02-14T05:52:19.341Z,4.01
2023-02-14T05:56:22.989Z,4.01
2023-02-14T05:58:24.956Z,4.01
2023-02-14T06:00:26.009Z,4.01
2023-02-14T06:02:27.322Z,4
2023-02-14T06:04:29.023Z,4.01
2023-02-14T06:06:30.861Z,4.01
2023-02-14T06:08:32.076Z,4.01
2023-02-14T06:12:35.195Z,4
2023-02-14T06:14:37.003Z,4
2023-02-14T06:16:38.244Z,4.01
2023-02-14T06:18:39.507Z,4.01
2023-02-14T06:22:41.956Z,4
2023-02-14T06:24:43.021Z,4
2023-02-14T06:26:44.795Z,4
2023-02-14T06:28:46.632Z,4
2023-02-14T06:30:47.855Z,4
2023-02-14T06:32:49.084Z,4
2023-02-14T06:34:51.081Z,4
2023-02-14T06:38:54.063Z,4
2023-02-14T06:40:55.868Z,4
2023-02-14T06:44:59.353Z,4
2023-02-14T06:47:01.128Z,4
2023-02-14T06:49:02.464Z,4
2023-02-14T06:51:04.373Z,4
2023-02-14T06:55:07.654Z,4
2023-02-14T06:57:08.819Z,4
2023-02-14T06:59:10.248Z,4
2023-02-14T07:01:11.674Z,4
2023-02-14T07:05:14.856Z,4
2023-02-14T07:07:16.289Z,4
2023-02-14T07:09:17.682Z,4
2023-02-14T07:11:19.273Z,4
2023-02-14T07:13:20.998Z,4
2023-02-14T07:15:22.913Z,4
2023-02-14T07:17:24.902Z,4
2023-02-14T07:21:28.394Z,4
2023-02-14T07:23:30.169Z,4
2023-02-14T07:27:32.678Z,4
2023-02-14T07:29:34.258Z,4
2023-02-14T07:31:35.548Z,4
2023-02-14T07:33:37.069Z,4
2023-02-14T07:37:39.595Z,4
2023-02-14T07:39:41.501Z,4
2023-02-14T07:41:42.817Z,3.99
2023-02-14T07:43:44.576Z,3.99
2023-02-14T07:47:47.001Z,3.99
2023-02-14T07:49:48.489Z,3.99
2023-02-14T07:51:49.523Z,3.99
2023-02-14T07:53:50.914Z,3.99
2023-02-14T07:55:52.084Z,3.99
2023-02-14T07:57:54.061Z,3.99
2023-02-14T07:59:55.318Z,3.99
2023-02-14T08:03:58.421Z,3.99
2023-02-14T08:05:59.605Z,3.99
2023-02-14T08:08:01.186Z,3.99
2023-02-14T08:10:02.592Z,3.99
2023-02-14T08:12:04.050Z,3.99
2023-02-14T08:14:05.371Z,3.99
2023-02-14T08:16:07.274Z,3.99
2023-02-14T08:20:10.831Z,3.99
2023-02-14T08:22:12.002Z,3.99
2023-02-14T08:24:13.779Z,3.99
2023-02-14T08:26:15.044Z,3.99
2023-02-14T08:28:17.049Z,3.99
2023-02-14T08:29:00.497Z,3.98
2023-02-14T08:31:02.429Z,3.99
2023-02-14T08:33:03.921Z,3.98
2023-02-14T08:35:05.716Z,3.98
2023-02-14T08:37:07.465Z,3.99
2023-02-14T08:41:10.392Z,3.98
2023-02-14T08:43:12.131Z,3.98
2023-02-14T08:45:13.238Z,3.98
2023-02-14T08:47:14.292Z,3.99
2023-02-14T08:49:16.261Z,3.98
2023-02-14T08:51:17.317Z,3.99
2023-02-14T08:53:18.730Z,3.98
2023-02-14T08:57:22.319Z,3.98
2023-02-14T08:59:23.897Z,3.98
2023-02-14T09:01:25.389Z,3.98
2023-02-14T09:03:26.997Z,3.99
2023-02-14T09:05:28.027Z,3.98
2023-02-14T09:07:29.383Z,3.98
2023-02-14T09:09:30.610Z,3.98
2023-02-14T09:13:34.262Z,3.98
2023-02-14T09:15:35.622Z,3.99
2023-02-14T09:17:36.864Z,3.99
2023-02-14T09:19:38.165Z,3.99
2023-02-14T09:23:41.340Z,3.99
2023-02-14T09:25:43.203Z,3.99
2023-02-14T09:27:44.909Z,3.99
2023-02-14T09:29:46.804Z,3.99
2023-02-14T09:31:48.089Z,3.99
2023-02-14T09:33:49.262Z,3.99
2023-02-14T09:35:50.385Z,3.99
2023-02-14T09:39:53.637Z,3.99
2023-02-14T09:41:55.285Z,3.99
2023-02-14T09:43:57.147Z,3.99
2023-02-14T09:45:58.829Z,3.99
2023-02-14T09:47:59.950Z,3.99
2023-02-14T09:50:01.124Z,3.99
2023-02-14T09:52:03.091Z,3.99
2023-02-14T09:56:06.236Z,3.99
2023-02-14T09:58:17.243Z,3.99
2023-02-14T10:00:09.334Z,4
2023-02-14T10:02:11.030Z,4
2023-02-14T10:06:13.606Z,4
2023-02-14T10:08:15.148Z,4
2023-02-14T10:12:17.302Z,4
2023-02-14T10:14:18.316Z,4
2023-02-14T10:16:20.156Z,4
2023-02-14T10:18:21.240Z,4
2023-02-14T10:22:24.592Z,4.01
2023-02-14T10:24:26.143Z,4.01
2023-02-14T10:26:27.706Z,4.01
2023-02-14T10:28:28.857Z,4.01
2023-02-14T10:30:31.013Z,4.01
2023-02-14T10:32:32.078Z,4.02
2023-02-14T10:34:33.974Z,4.02
2023-02-14T10:38:36.774Z,4.02
2023-02-14T10:40:38.265Z,4.02
2023-02-14T10:42:40.065Z,4.02
2023-02-14T10:44:41.795Z,4.02
2023-02-14T10:48:44.624Z,4.02
2023-02-14T10:50:46.426Z,4.02
2023-02-14T10:54:49.006Z,4.03
2023-02-14T10:56:50.215Z,4.03
2023-02-14T10:58:52.074Z,4.03
2023-02-14T11:00:53.164Z,4.04
2023-02-14T11:04:56.209Z,4.04
2023-02-14T11:06:57.208Z,4.03
2023-02-14T11:11:00.109Z,4.04
2023-02-14T11:13:01.400Z,4.04
2023-02-14T11:15:02.470Z,4.04
2023-02-14T11:17:04.410Z,4.04
2023-02-14T11:21:07.055Z,4.04
2023-02-14T11:23:08.310Z,4.04
2023-02-14T11:25:09.896Z,4.04
2023-02-14T11:27:11.486Z,4.04
2023-02-14T11:31:13.534Z,4.05
2023-02-14T11:33:14.460Z,4.05
2023-02-14T11:37:17.031Z,4.05
2023-02-14T11:39:19.930Z,4.06
2023-02-14T11:41:19.749Z,4.06
2023-02-14T11:43:21.489Z,4.06
2023-02-14T11:47:24.118Z,4.06
2023-02-14T11:49:25.623Z,4.06
2023-02-14T11:51:27.192Z,4.06
2023-02-14T11:53:28.494Z,4.07
2023-02-14T11:55:30.272Z,4.07
2023-02-14T11:57:32.406Z,4.07
2023-02-14T11:59:33.340Z,4.07
2023-02-14T12:01:34.557Z,4.07
2023-02-14T12:03:36.511Z,4.07
2023-02-14T12:05:37.536Z,4.08
2023-02-14T12:07:39.245Z,4.08
2023-02-14T12:09:40.507Z,4.08
2023-02-14T12:11:41.619Z,4.08
2023-02-14T12:13:42.702Z,4.08
2023-02-14T12:15:44.091Z,4.08
2023-02-14T12:19:47.180Z,4.08
2023-02-14T12:21:48.618Z,4.08
2023-02-14T12:23:49.779Z,4.08
2023-02-14T12:25:51.658Z,4.09
2023-02-14T12:29:55.033Z,4.1
2023-02-14T12:31:56.246Z,4.1
2023-02-14T12:35:59.633Z,4.1
2023-02-14T12:40:01.925Z,4.1
2023-02-14T12:44:04.746Z,4.1
2023-02-14T12:46:06.356Z,4.1
2023-02-14T12:48:08.024Z,4.11
2023-02-14T12:50:09.853Z,4.11
2023-02-14T12:52:10.818Z,4.11
2023-02-14T12:54:12.280Z,4.12
2023-02-14T12:56:13.963Z,4.11
2023-02-14T12:58:15.234Z,4.12
2023-02-14T13:00:17.018Z,4.12
2023-02-14T13:02:18.264Z,4.12
2023-02-14T13:06:21.172Z,4.12
2023-02-14T13:08:22.727Z,4.12
2023-02-14T13:12:25.258Z,4.12
2023-02-14T13:14:27.354Z,4.13
2023-02-14T13:16:28.138Z,4.12
2023-02-14T13:18:29.751Z,4.13
2023-02-14T13:20:31.152Z,4.14
2023-02-14T13:22:32.147Z,4.14
2023-02-14T13:24:33.459Z,4.14
2023-02-14T13:28:36.218Z,4.14
2023-02-14T13:30:38.224Z,4.14
2023-02-14T13:34:41.866Z,4.15
2023-02-14T13:36:42.923Z,4.15
2023-02-14T13:38:44.805Z,4.15
2023-02-14T13:40:45.914Z,4.15
2023-02-14T13:44:49.435Z,4.15
2023-02-14T13:46:50.471Z,4.15
2023-02-14T13:48:52.215Z,4.16
2023-02-14T13:50:53.378Z,4.16
2023-02-14T13:54:55.845Z,4.16
2023-02-14T13:56:57.691Z,4.16
2023-02-14T13:58:58.719Z,4.16
2023-02-14T14:00:59.905Z,4.16
2023-02-14T14:03:01.593Z,4.17
2023-02-14T14:05:03.339Z,4.17
2023-02-14T14:07:04.344Z,4.17
2023-02-14T14:11:06.878Z,4.18
2023-02-14T14:13:08.883Z,4.18
2023-02-14T14:15:09.917Z,4.19
2023-02-14T14:17:10.943Z,4.19
2023-02-14T14:19:12.653Z,4.19
2023-02-14T14:21:13.667Z,4.19
2023-02-14T14:23:14.932Z,4.19
2023-02-14T14:27:17.515Z,4.19
2023-02-14T14:29:18.897Z,4.19
2023-02-14T14:31:20.822Z,4.19
2023-02-14T14:33:22.399Z,4.19
2023-02-14T14:35:23.416Z,4.2
2023-02-14T14:37:24.803Z,4.2
2023-02-14T14:39:27.329Z,4.2
2023-02-14T14:43:29.686Z,4.2
2023-02-14T14:45:31.349Z,4.2
2023-02-14T14:47:32.765Z,4.2
2023-02-14T14:49:34.631Z,4.2
2023-02-14T14:53:37.554Z,4.2
2023-02-14T14:55:39.422Z,4.2
2023-02-14T14:57:40.529Z,4.2
2023-02-14T14:59:42.320Z,4.2
2023-02-14T15:01:43.477Z,4.2
2023-02-14T15:03:45.055Z,4.2
2023-02-14T15:05:46.576Z,4.2
2023-02-14T15:09:49.803Z,4.19
2023-02-14T15:11:51.202Z,4.19
2023-02-14T15:13:52.331Z,4.19
2023-02-14T15:16:38.012Z,4.19
2023-02-14T15:20:40.696Z,4.19
2023-02-14T15:22:42.096Z,4.19
2023-02-14T15:24:43.459Z,4.19
2023-02-14T15:26:44.647Z,4.19
2023-02-14T15:30:47.903Z,4.19
2023-02-14T15:32:49.654Z,4.18
2023-02-14T15:36:52.321Z,4.18
2023-02-14T15:38:54.091Z,4.18
2023-02-14T15:40:55.779Z,4.18
2023-02-14T15:42:57.092Z,4.18
2023-02-14T15:46:59.365Z,4.18
2023-02-14T15:49:00.945Z,4.18
2023-02-14T15:53:03.805Z,4.17
2023-02-14T15:55:04.862Z,4.17
2023-02-14T15:57:06.196Z,4.17
2023-02-14T15:59:07.972Z,4.17
2023-02-14T16:03:11.043Z,4.17
2023-02-14T16:05:12.990Z,4.17
2023-02-14T16:07:14.231Z,4.17
2023-02-14T16:09:15.452Z,4.17
2023-02-14T16:13:18.500Z,4.17
2023-02-14T16:15:20.435Z,4.17
2023-02-14T16:17:22.067Z,4.17
2023-02-14T16:19:23.996Z,4.17
2023-02-14T16:21:25.804Z,4.17
2023-02-14T16:23:27.054Z,4.17
2023-02-14T16:25:28.686Z,4.17
2023-02-14T16:29:32.176Z,4.17
2023-02-14T16:31:34.229Z,4.17
2023-02-14T16:35:37.354Z,4.17
2023-02-14T16:37:38.343Z,4.17
2023-02-14T16:39:39.413Z,4.16
2023-02-14T16:41:41.010Z,4.16
2023-02-14T16:45:44.294Z,4.16
2023-02-14T16:47:46.240Z,4.16
2023-02-14T16:51:49.243Z,4.16
2023-02-14T16:53:50.522Z,4.16
2023-02-14T16:55:51.570Z,4.16
2023-02-14T16:57:53.569Z,4.16
2023-02-14T17:01:56.352Z,4.16
2023-02-14T17:03:58.102Z,4.16
2023-02-14T17:05:59.840Z,4.16
2023-02-14T17:08:01.854Z,4.16
2023-02-14T17:10:03.049Z,4.16
2023-02-14T17:12:04.070Z,4.16
2023-02-14T17:14:05.586Z,4.16
2023-02-14T17:18:07.787Z,4.16
2023-02-14T17:20:09.017Z,4.16
2023-02-14T17:22:10.795Z,4.16
2023-02-14T17:24:11.844Z,4.16
2023-02-14T17:28:14.806Z,4.16
2023-02-14T17:30:16.636Z,4.16
2023-02-14T17:32:18.086Z,4.16
2023-02-14T17:34:18.972Z,4.15
2023-02-14T17:36:20.822Z,4.16
2023-02-14T17:38:22.315Z,4.15
2023-02-14T17:40:23.324Z,4.16
2023-02-14T17:44:26.897Z,4.15
2023-02-14T17:46:28.043Z,4.16
2023-02-14T17:50:39.333Z,4.15
2023-02-14T17:52:32.370Z,4.15
2023-02-14T17:54:33.823Z,4.15
2023-02-14T17:56:35.614Z,4.15
2023-02-14T18:00:38.990Z,4.15
2023-02-14T18:02:41.004Z,4.15
2023-02-14T18:04:42.172Z,4.15
2023-02-14T18:06:43.876Z,4.15
2023-02-14T18:10:46.463Z,4.15
2023-02-14T18:12:47.547Z,4.15
2023-02-14T18:14:48.817Z,4.15
2023-02-14T18:16:50.113Z,4.14
2023-02-14T18:18:51.710Z,4.14
2023-02-14T18:20:52.755Z,4.15
2023-02-14T18:22:54.341Z,4.14
2023-02-14T18:26:57.865Z,4.14
2023-02-14T18:28:59.761Z,4.14
2023-02-14T18:31:01.210Z,4.14
2023-02-14T18:33:02.357Z,4.14
2023-02-14T18:35:04.010Z,4.14
2023-02-14T18:37:05.952Z,4.14
2023-02-14T18:39:07.461Z,4.14
2023-02-14T18:43:10.834Z,4.14
2023-02-14T18:45:12.493Z,4.14
2023-02-14T18:47:14.257Z,4.14
2023-02-14T18:49:15.802Z,4.14
2023-02-14T18:53:19.671Z,4.14
2023-02-14T18:55:21.456Z,4.14
2023-02-14T18:59:24.084Z,4.14
2023-02-14T19:01:25.616Z,4.14
2023-02-14T19:03:26.799Z,4.14
2023-02-14T19:05:28.054Z,4.14
2023-02-14T19:07:29.545Z,4.14
2023-02-14T19:09:30.665Z,4.14
2023-02-14T19:11:32.394Z,4.14
2023-02-14T19:13:34.050Z,4.14
2023-02-14T19:15:35.471Z,4.14
2023-02-14T19:17:37.418Z,4.14
2023-02-14T19:19:38.595Z,4.13
2023-02-14T19:21:39.680Z,4.14
2023-02-14T19:25:42.591Z,4.13
2023-02-14T19:27:44.600Z,4.14
2023-02-14T19:29:45.651Z,4.13
2023-02-14T19:31:47.115Z,4.13
2023-02-14T19:33:49.075Z,4.13
2023-02-14T19:35:50.672Z,4.13
2023-02-14T19:37:51.887Z,4.13
2023-02-14T19:41:54.163Z,4.13
2023-02-14T19:43:56.054Z,4.13
2023-02-14T19:45:57.898Z,4.13
2023-02-14T19:47:58.920Z,4.13
2023-02-14T19:52:01.800Z,4.13
2023-02-14T19:54:03.462Z,4.13
2023-02-14T19:58:06.375Z,4.13
2023-02-14T20:00:07.820Z,4.13
2023-02-14T20:02:09.431Z,4.13
2023-02-14T20:04:10.975Z,4.13
2023-02-14T20:08:13.394Z,4.13
2023-02-14T20:10:14.908Z,4.13
2023-02-14T20:12:16.501Z,4.13
2023-02-14T20:14:18.022Z,4.13
2023-02-14T20:16:19.100Z,4.13
2023-02-14T20:18:20.858Z,4.13
2023-02-14T20:20:22.821Z,4.12
2023-02-14T20:24:25.934Z,4.13
2023-02-14T20:26:27.815Z,4.12
2023-02-14T20:28:29.382Z,4.12
2023-02-14T20:30:31.390Z,4.12
2023-02-14T20:34:34.527Z,4.12
2023-02-14T20:36:36.174Z,4.12
2023-02-14T20:40:38.781Z,4.12
2023-02-14T20:42:40.426Z,4.12
2023-02-14T20:44:42.103Z,4.12
2023-02-14T20:46:43.218Z,4.12
2023-02-14T20:50:46.005Z,4.12
2023-02-14T20:52:47.270Z,4.12
2023-02-14T20:54:49.194Z,4.12
2023-02-14T20:56:50.603Z,4.12
2023-02-14T20:58:52.014Z,4.12
2023-02-14T21:00:55.520Z,4.12
2023-02-14T21:02:55.113Z,4.12
2023-02-14T21:06:58.034Z,4.12
2023-02-14T21:08:59.273Z,4.12
2023-02-14T21:11:01.370Z,4.12
2023-02-14T21:13:02.374Z,4.12
2023-02-14T21:17:05.847Z,4.12
2023-02-14T21:19:07.471Z,4.12
2023-02-14T21:21:08.520Z,4.12
2023-02-14T21:23:10.259Z,4.12
2023-02-14T21:25:12.008Z,4.12
2023-02-14T21:27:13.428Z,4.12
2023-02-14T21:29:14.781Z,4.11
2023-02-14T21:33:18.384Z,4.11
2023-02-14T21:35:19.789Z,4.11
2023-02-14T21:39:23.261Z,4.11
2023-02-14T21:41:24.965Z,4.11
2023-02-14T21:43:26.007Z,4.11
2023-02-14T21:45:27.589Z,4.11
2023-02-14T21:49:30.709Z,4.11
2023-02-14T21:51:31.866Z,4.11
2023-02-14T21:53:33.552Z,4.11
2023-02-14T21:55:34.583Z,4.11
2023-02-14T21:59:37.383Z,4.11
2023-02-14T22:00:21.268Z,4.11
2023-02-14T22:04:24.363Z,4.11
2023-02-14T22:06:25.404Z,4.1
2023-02-14T22:10:28.609Z,4.11
2023-02-14T22:12:29.914Z,4.1
2023-02-14T22:14:31.028Z,4.11
2023-02-14T22:16:32.992Z,4.11
2023-02-14T22:18:34.765Z,4.11
2023-02-14T22:20:36.551Z,4.1
2023-02-14T22:22:38.146Z,4.1
2023-02-14T22:26:40.947Z,4.11
2023-02-14T22:28:42.099Z,4.1
2023-02-14T22:30:44.011Z,4.1
2023-02-14T22:32:45.725Z,4.1
2023-02-14T22:34:47.404Z,4.1
2023-02-14T22:36:48.982Z,4.1
2023-02-14T22:38:50.870Z,4.1
2023-02-14T22:42:53.790Z,4.1
2023-02-14T22:44:55.744Z,4.1
2023-02-14T22:46:57.281Z,4.1
2023-02-14T22:48:58.996Z,4.1
2023-02-14T22:53:02.090Z,4.1
2023-02-14T22:55:03.459Z,4.1
2023-02-14T22:57:04.704Z,4.1
2023-02-14T22:59:05.937Z,4.1
2023-02-14T23:01:07.349Z,4.1
2023-02-14T23:03:08.912Z,4.1
2023-02-14T23:05:10.163Z,4.1
2023-02-14T23:09:12.262Z,4.1
2023-02-14T23:11:13.727Z,4.1
2023-02-14T23:13:14.958Z,4.1
2023-02-14T23:15:16.157Z,4.1
2023-02-14T23:17:17.364Z,4.1
2023-02-14T23:19:18.575Z,4.1
2023-02-14T23:21:19.822Z,4.1
2023-02-14T23:25:23.657Z,4.1
2023-02-14T23:27:25.485Z,4.09
2023-02-14T23:29:26.763Z,4.09
2023-02-14T23:31:28.410Z,4.09
2023-02-14T23:35:31.963Z,4.1
2023-02-14T23:37:33.273Z,4.09
2023-02-14T23:41:36.623Z,4.09
2023-02-14T23:43:38.331Z,4.09
2023-02-14T23:45:39.475Z,4.09
2023-02-14T23:47:40.940Z,4.09
2023-02-14T23:51:43.996Z,4.09
2023-02-14T23:53:45.577Z,4.09
2023-02-14T23:55:47.454Z,4.09
2023-02-14T23:57:49.166Z,4.09
2023-02-14T23:59:50.244Z,4.09
